sensor_id;sensor_type;location;lat;lon;timestamp;pressure;altitude;pressure_sealevel;temperature;humidity
71996;BME280;59862;47.732;7.346;2023-03-22T00:02:05;98008.28;;;9.33;69.05
71996;BME280;59862;47.732;7.346;2023-03-22T00:04:32;98000.91;;;9.35;68.84
71996;BME280;59862;47.732;7.346;2023-03-22T00:07:00;97991.19;;;9.34;68.77
71996;BME280;59862;47.732;7.346;2023-03-22T00:09:27;97996.73;;;9.32;68.75
71996;BME280;59862;47.732;7.346;2023-03-22T00:11:55;97985.19;;;9.32;68.33
71996;BME280;59862;47.732;7.346;2023-03-22T00:14:22;98003.56;;;9.39;68.19
71996;BME280;59862;47.732;7.346;2023-03-22T00:16:50;97995.19;;;9.42;67.94
71996;BME280;59862;47.732;7.346;2023-03-22T00:19:17;97998.15;;;9.47;67.73
71996;BME280;59862;47.732;7.346;2023-03-22T00:21:45;97998.30;;;9.49;67.61
71996;BME280;59862;47.732;7.346;2023-03-22T00:24:13;97993.82;;;9.46;67.61
71996;BME280;59862;47.732;7.346;2023-03-22T00:26:40;97987.47;;;9.43;67.74
71996;BME280;59862;47.732;7.346;2023-03-22T00:29:07;97992.14;;;9.45;67.58
71996;BME280;59862;47.732;7.346;2023-03-22T00:31:35;97986.50;;;9.40;67.68
71996;BME280;59862;47.732;7.346;2023-03-22T00:34:03;97990.36;;;9.37;67.77
71996;BME280;59862;47.732;7.346;2023-03-22T00:36:30;97995.89;;;9.32;67.88
71996;BME280;59862;47.732;7.346;2023-03-22T00:38:58;97980.35;;;9.27;67.85
71996;BME280;59862;47.732;7.346;2023-03-22T00:41:25;97980.56;;;9.22;68.17
71996;BME280;59862;47.732;7.346;2023-03-22T00:43:53;97978.07;;;9.20;68.33
71996;BME280;59862;47.732;7.346;2023-03-22T00:46:21;97975.23;;;9.18;68.39
71996;BME280;59862;47.732;7.346;2023-03-22T00:48:48;97966.04;;;9.12;68.61
71996;BME280;59862;47.732;7.346;2023-03-22T00:51:16;97961.72;;;9.11;68.69
71996;BME280;59862;47.732;7.346;2023-03-22T00:53:44;97969.93;;;9.09;68.83
71996;BME280;59862;47.732;7.346;2023-03-22T00:56:13;97969.61;;;9.04;68.97
71996;BME280;59862;47.732;7.346;2023-03-22T00:58:41;97964.75;;;9.04;69.05
71996;BME280;59862;47.732;7.346;2023-03-22T01:01:10;97962.26;;;9.02;69.17
71996;BME280;59862;47.732;7.346;2023-03-22T01:03:41;97955.91;;;8.99;69.32
71996;BME280;59862;47.732;7.346;2023-03-22T01:06:10;97953.25;;;8.95;69.44
71996;BME280;59862;47.732;7.346;2023-03-22T01:08:37;97949.22;;;8.99;69.34
71996;BME280;59862;47.732;7.346;2023-03-22T01:11:06;97952.23;;;9.00;69.37
71996;BME280;59862;47.732;7.346;2023-03-22T01:13:34;97948.88;;;9.02;69.25
71996;BME280;59862;47.732;7.346;2023-03-22T01:16:07;97937.83;;;9.01;69.21
71996;BME280;59862;47.732;7.346;2023-03-22T01:18:35;97934.19;;;8.98;69.34
71996;BME280;59862;47.732;7.346;2023-03-22T01:21:03;97940.08;;;8.90;69.65
71996;BME280;59862;47.732;7.346;2023-03-22T01:23:31;97937.41;;;8.90;69.73
71996;BME280;59862;47.732;7.346;2023-03-22T01:25:59;97934.06;;;8.84;69.92
71996;BME280;59862;47.732;7.346;2023-03-22T01:28:27;97938.94;;;8.80;70.04
71996;BME280;59862;47.732;7.346;2023-03-22T01:30:59;97928.94;;;8.74;70.28
71996;BME280;59862;47.732;7.346;2023-03-22T01:33:25;97932.99;;;8.66;70.45
71996;BME280;59862;47.732;7.346;2023-03-22T01:35:52;97929.99;;;8.61;70.69
71996;BME280;59862;47.732;7.346;2023-03-22T01:38:20;97931.17;;;8.59;70.76
71996;BME280;59862;47.732;7.346;2023-03-22T01:40:47;97938.20;;;8.52;71.07
71996;BME280;59862;47.732;7.346;2023-03-22T01:43:16;97934.39;;;8.46;71.30
71996;BME280;59862;47.732;7.346;2023-03-22T01:45:52;97931.37;;;8.45;71.41
71996;BME280;59862;47.732;7.346;2023-03-22T01:48:19;97931.73;;;8.42;71.55
71996;BME280;59862;47.732;7.346;2023-03-22T01:50:59;97925.56;;;8.37;71.66
71996;BME280;59862;47.732;7.346;2023-03-22T01:53:32;97926.89;;;8.37;71.67
71996;BME280;59862;47.732;7.346;2023-03-22T01:55:59;97926.05;;;8.37;71.71
71996;BME280;59862;47.732;7.346;2023-03-22T01:58:27;97929.58;;;8.33;71.95
71996;BME280;59862;47.732;7.346;2023-03-22T02:00:55;97929.73;;;8.32;72.00
71996;BME280;59862;47.732;7.346;2023-03-22T02:03:47;97924.39;;;8.32;71.99
71996;BME280;59862;47.732;7.346;2023-03-22T02:06:16;97930.58;;;8.32;72.00
71996;BME280;59862;47.732;7.346;2023-03-22T02:08:44;97923.41;;;8.29;72.12
71996;BME280;59862;47.732;7.346;2023-03-22T02:11:16;97925.08;;;8.26;72.28
71996;BME280;59862;47.732;7.346;2023-03-22T02:14:02;97918.19;;;8.23;72.37
71996;BME280;59862;47.732;7.346;2023-03-22T02:17:08;97911.02;;;8.24;72.32
71996;BME280;59862;47.732;7.346;2023-03-22T02:28:23;97894.86;;;8.09;72.87
71996;BME280;59862;47.732;7.346;2023-03-22T02:31:12;97891.16;;;8.10;72.80
71996;BME280;59862;47.732;7.346;2023-03-22T02:39:34;97885.66;;;8.08;72.78
71996;BME280;59862;47.732;7.346;2023-03-22T02:47:40;97876.98;;;8.02;72.76
71996;BME280;59862;47.732;7.346;2023-03-22T02:50:21;97878.67;;;8.03;72.77
71996;BME280;59862;47.732;7.346;2023-03-22T02:55:43;97885.67;;;8.12;72.25
71996;BME280;59862;47.732;7.346;2023-03-22T02:58:24;97890.68;;;8.07;72.26
71996;BME280;59862;47.732;7.346;2023-03-22T03:00:50;97891.69;;;8.10;72.15
71996;BME280;59862;47.732;7.346;2023-03-22T03:03:19;97889.16;;;8.08;72.25
71996;BME280;59862;47.732;7.346;2023-03-22T03:05:54;97891.67;;;8.06;72.24
71996;BME280;59862;47.732;7.346;2023-03-22T03:08:23;97887.67;;;8.02;72.52
71996;BME280;59862;47.732;7.346;2023-03-22T03:10:52;97887.03;;;7.92;72.94
71996;BME280;59862;47.732;7.346;2023-03-22T03:13:20;97888.05;;;7.83;73.31
71996;BME280;59862;47.732;7.346;2023-03-22T03:15:50;97886.72;;;7.79;73.57
71996;BME280;59862;47.732;7.346;2023-03-22T03:18:25;97889.05;;;7.74;73.82
71996;BME280;59862;47.732;7.346;2023-03-22T03:29:32;97888.56;;;7.50;74.78
71996;BME280;59862;47.732;7.346;2023-03-22T03:32:14;97885.90;;;7.42;75.17
71996;BME280;59862;47.732;7.346;2023-03-22T03:35:00;97892.09;;;7.38;75.31
71996;BME280;59862;47.732;7.346;2023-03-22T03:37:34;97898.06;;;7.28;75.62
71996;BME280;59862;47.732;7.346;2023-03-22T03:40:11;97888.05;;;7.26;75.71
71996;BME280;59862;47.732;7.346;2023-03-22T03:42:45;97895.39;;;7.24;75.82
71996;BME280;59862;47.732;7.346;2023-03-22T03:45:14;97896.41;;;7.23;75.84
71996;BME280;59862;47.732;7.346;2023-03-22T03:47:44;97898.91;;;7.21;75.86
71996;BME280;59862;47.732;7.346;2023-03-22T03:50:14;97900.38;;;7.19;75.92
71996;BME280;59862;47.732;7.346;2023-03-22T03:52:42;97893.53;;;7.13;76.11
71996;BME280;59862;47.732;7.346;2023-03-22T03:55:10;97897.70;;;7.11;76.26
71996;BME280;59862;47.732;7.346;2023-03-22T03:57:37;97898.20;;;7.11;76.36
71996;BME280;59862;47.732;7.346;2023-03-22T04:00:05;97898.86;;;7.09;76.49
71996;BME280;59862;47.732;7.346;2023-03-22T04:02:34;97897.34;;;7.06;76.69
71996;BME280;59862;47.732;7.346;2023-03-22T04:05:02;97893.88;;;7.10;76.67
71996;BME280;59862;47.732;7.346;2023-03-22T04:07:29;97891.70;;;7.05;76.83
71996;BME280;59862;47.732;7.346;2023-03-22T04:09:57;97888.53;;;7.02;76.93
71996;BME280;59862;47.732;7.346;2023-03-22T04:12:24;97889.69;;;6.99;77.12
71996;BME280;59862;47.732;7.346;2023-03-22T04:14:52;97884.36;;;6.99;77.06
71996;BME280;59862;47.732;7.346;2023-03-22T04:17:22;97882.53;;;7.04;76.91
71996;BME280;59862;47.732;7.346;2023-03-22T04:19:49;97874.36;;;7.01;76.92
71996;BME280;59862;47.732;7.346;2023-03-22T04:22:19;97876.67;;;7.00;76.92
71996;BME280;59862;47.732;7.346;2023-03-22T04:24:46;97869.69;;;6.99;77.02
71996;BME280;59862;47.732;7.346;2023-03-22T04:27:16;97870.00;;;6.96;77.18
71996;BME280;59862;47.732;7.346;2023-03-22T04:29:44;97867.69;;;7.01;77.06
71996;BME280;59862;47.732;7.346;2023-03-22T04:32:18;97867.02;;;7.03;76.98
71996;BME280;59862;47.732;7.346;2023-03-22T04:34:49;97865.69;;;7.03;76.83
71996;BME280;59862;47.732;7.346;2023-03-22T04:37:18;97863.86;;;7.04;76.80
71996;BME280;59862;47.732;7.346;2023-03-22T04:39:47;97865.69;;;7.03;76.86
71996;BME280;59862;47.732;7.346;2023-03-22T04:42:14;97865.02;;;7.09;76.76
71996;BME280;59862;47.732;7.346;2023-03-22T04:44:42;97865.38;;;7.10;76.64
71996;BME280;59862;47.732;7.346;2023-03-22T04:47:09;97864.03;;;7.10;76.63
71996;BME280;59862;47.732;7.346;2023-03-22T04:49:37;97861.55;;;7.17;76.39
71996;BME280;59862;47.732;7.346;2023-03-22T04:52:05;97859.54;;;7.19;76.16
71996;BME280;59862;47.732;7.346;2023-03-22T04:54:32;97856.38;;;7.23;76.05
71996;BME280;59862;47.732;7.346;2023-03-22T04:57:00;97851.86;;;7.16;76.05
71996;BME280;59862;47.732;7.346;2023-03-22T04:59:27;97855.68;;;7.21;75.96
71996;BME280;59862;47.732;7.346;2023-03-22T05:01:55;97855.36;;;7.24;75.77
71996;BME280;59862;47.732;7.346;2023-03-22T05:04:22;97853.53;;;7.29;75.54
71996;BME280;59862;47.732;7.346;2023-03-22T05:06:49;97857.05;;;7.25;75.59
71996;BME280;59862;47.732;7.346;2023-03-22T05:09:17;97867.72;;;7.25;75.54
71996;BME280;59862;47.732;7.346;2023-03-22T05:11:44;97861.20;;;7.20;75.45
71996;BME280;59862;47.732;7.346;2023-03-22T05:14:12;97855.37;;;7.12;75.66
71996;BME280;59862;47.732;7.346;2023-03-22T05:16:40;97862.35;;;7.05;75.77
71996;BME280;59862;47.732;7.346;2023-03-22T05:19:08;97861.34;;;7.02;75.95
71996;BME280;59862;47.732;7.346;2023-03-22T05:21:37;97867.02;;;6.95;76.08
71996;BME280;59862;47.732;7.346;2023-03-22T05:24:05;97861.64;;;6.87;76.30
71996;BME280;59862;47.732;7.346;2023-03-22T05:26:33;97859.64;;;6.85;76.39
71996;BME280;59862;47.732;7.346;2023-03-22T05:29:02;97856.97;;;6.77;76.61
71996;BME280;59862;47.732;7.346;2023-03-22T05:31:30;97857.61;;;6.67;76.97
71996;BME280;59862;47.732;7.346;2023-03-22T05:33:59;97857.43;;;6.60;77.34
71996;BME280;59862;47.732;7.346;2023-03-22T05:36:27;97857.43;;;6.60;77.45
71996;BME280;59862;47.732;7.346;2023-03-22T05:38:57;97860.59;;;6.64;77.43
71996;BME280;59862;47.732;7.346;2023-03-22T05:41:24;97861.92;;;6.64;77.42
71996;BME280;59862;47.732;7.346;2023-03-22T05:43:52;97860.41;;;6.61;77.53
71996;BME280;59862;47.732;7.346;2023-03-22T05:46:19;97862.59;;;6.62;77.48
71996;BME280;59862;47.732;7.346;2023-03-22T05:48:47;97864.91;;;6.61;77.57
71996;BME280;59862;47.732;7.346;2023-03-22T05:51:15;97861.91;;;6.56;77.77
71996;BME280;59862;47.732;7.346;2023-03-22T05:53:46;97869.42;;;6.60;77.96
71996;BME280;59862;47.732;7.346;2023-03-22T05:56:14;97866.77;;;6.68;77.83
71996;BME280;59862;47.732;7.346;2023-03-22T05:58:42;97865.94;;;6.72;77.74
71996;BME280;59862;47.732;7.346;2023-03-22T06:01:12;97864.47;;;6.73;77.77
71996;BME280;59862;47.732;7.346;2023-03-22T06:03:42;97860.79;;;6.78;77.73
71996;BME280;59862;47.732;7.346;2023-03-22T06:06:10;97867.98;;;6.82;77.65
71996;BME280;59862;47.732;7.346;2023-03-22T06:08:38;97863.33;;;6.84;77.65
71996;BME280;59862;47.732;7.346;2023-03-22T06:11:06;97871.64;;;6.89;77.63
71996;BME280;59862;47.732;7.346;2023-03-22T06:13:34;97869.69;;;6.95;77.48
71996;BME280;59862;47.732;7.346;2023-03-22T06:16:03;97873.52;;;7.09;77.12
71996;BME280;59862;47.732;7.346;2023-03-22T06:18:31;97878.01;;;7.04;77.20
71996;BME280;59862;47.732;7.346;2023-03-22T06:20:59;97880.01;;;7.06;77.27
71996;BME280;59862;47.732;7.346;2023-03-22T06:23:27;97880.36;;;7.15;77.03
71996;BME280;59862;47.732;7.346;2023-03-22T06:25:55;97884.05;;;7.22;76.76
71996;BME280;59862;47.732;7.346;2023-03-22T06:28:22;97879.73;;;7.29;76.65
71996;BME280;59862;47.732;7.346;2023-03-22T06:30:51;97876.05;;;7.30;76.52
71996;BME280;59862;47.732;7.346;2023-03-22T06:33:18;97877.72;;;7.39;76.29
71996;BME280;59862;47.732;7.346;2023-03-22T06:35:46;97870.22;;;7.51;75.62
71996;BME280;59862;47.732;7.346;2023-03-22T06:38:13;97872.04;;;7.58;75.55
71996;BME280;59862;47.732;7.346;2023-03-22T06:40:41;97874.70;;;7.75;75.19
71996;BME280;59862;47.732;7.346;2023-03-22T06:43:08;97879.03;;;7.88;74.50
71996;BME280;59862;47.732;7.346;2023-03-22T06:45:36;97877.66;;;8.00;73.99
71996;BME280;59862;47.732;7.346;2023-03-22T06:48:03;97881.48;;;8.13;73.50
71996;BME280;59862;47.732;7.346;2023-03-22T06:50:31;97886.30;;;8.22;72.97
71996;BME280;59862;47.732;7.346;2023-03-22T06:53:00;97889.13;;;8.36;72.06
71996;BME280;59862;47.732;7.346;2023-03-22T06:55:28;97888.39;;;8.55;71.92
71996;BME280;59862;47.732;7.346;2023-03-22T06:57:57;97894.19;;;8.70;71.67
71996;BME280;59862;47.732;7.346;2023-03-22T07:00:24;97895.80;;;8.83;70.96
71996;BME280;59862;47.732;7.346;2023-03-22T07:02:51;97886.01;;;8.94;69.93
71996;BME280;59862;47.732;7.346;2023-03-22T07:05:20;97890.28;;;9.11;69.90
71996;BME280;59862;47.732;7.346;2023-03-22T07:07:47;97889.01;;;9.26;69.29
71996;BME280;59862;47.732;7.346;2023-03-22T07:10:15;97886.47;;;9.51;68.23
71996;BME280;59862;47.732;7.346;2023-03-22T07:12:43;97886.47;;;9.51;68.23
71996;BME280;59862;47.732;7.346;2023-03-22T07:15:11;97879.20;;;9.60;68.05
71996;BME280;59862;47.732;7.346;2023-03-22T07:17:38;97881.45;;;9.71;67.71
71996;BME280;59862;47.732;7.346;2023-03-22T07:20:06;97881.82;;;9.86;67.83
71996;BME280;59862;47.732;7.346;2023-03-22T07:22:34;97881.84;;;10.01;66.57
71996;BME280;59862;47.732;7.346;2023-03-22T07:25:01;97881.12;;;10.11;66.26
71996;BME280;59862;47.732;7.346;2023-03-22T07:27:29;97884.35;;;10.21;66.06
71996;BME280;59862;47.732;7.346;2023-03-22T07:29:56;97881.58;;;10.29;65.64
71996;BME280;59862;47.732;7.346;2023-03-22T07:32:24;97886.89;;;10.33;65.19
71996;BME280;59862;47.732;7.346;2023-03-22T07:34:51;97884.09;;;10.45;64.83
71996;BME280;59862;47.732;7.346;2023-03-22T07:37:18;97890.64;;;10.57;64.52
71996;BME280;59862;47.732;7.346;2023-03-22T07:39:46;97883.82;;;10.65;63.97
71996;BME280;59862;47.732;7.346;2023-03-22T07:42:14;97888.30;;;10.84;63.92
71996;BME280;59862;47.732;7.346;2023-03-22T07:44:41;97872.93;;;11.03;63.67
71996;BME280;59862;47.732;7.346;2023-03-22T07:47:09;97870.39;;;11.16;62.56
71996;BME280;59862;47.732;7.346;2023-03-22T07:49:36;97870.60;;;11.25;62.29
71996;BME280;59862;47.732;7.346;2023-03-22T07:52:04;97868.48;;;11.31;62.39
71996;BME280;59862;47.732;7.346;2023-03-22T07:54:31;97864.73;;;11.36;62.20
71996;BME280;59862;47.732;7.346;2023-03-22T07:56:59;97864.86;;;11.49;62.22
71996;BME280;59862;47.732;7.346;2023-03-22T07:59:27;97861.03;;;11.48;61.98
71996;BME280;59862;47.732;7.346;2023-03-22T08:01:54;97856.60;;;11.40;62.38
71996;BME280;59862;47.732;7.346;2023-03-22T08:04:22;97861.39;;;11.55;62.34
71996;BME280;59862;47.732;7.346;2023-03-22T08:06:50;97858.48;;;11.71;61.79
71996;BME280;59862;47.732;7.346;2023-03-22T08:09:19;97864.20;;;11.89;60.89
71996;BME280;59862;47.732;7.346;2023-03-22T08:11:46;97859.61;;;12.45;59.69
71996;BME280;59862;47.732;7.346;2023-03-22T08:14:14;97863.12;;;12.86;58.38
71996;BME280;59862;47.732;7.346;2023-03-22T08:16:41;97855.81;;;13.21;57.04
71996;BME280;59862;47.732;7.346;2023-03-22T08:19:11;97860.53;;;13.06;57.57
71996;BME280;59862;47.732;7.346;2023-03-22T08:21:38;97856.24;;;13.18;57.48
71996;BME280;59862;47.732;7.346;2023-03-22T08:24:06;97854.56;;;13.17;57.40
71996;BME280;59862;47.732;7.346;2023-03-22T08:26:33;97864.09;;;13.56;56.70
71996;BME280;59862;47.732;7.346;2023-03-22T08:29:01;97861.20;;;13.97;55.70
71996;BME280;59862;47.732;7.346;2023-03-22T08:31:28;97866.91;;;14.44;54.44
71996;BME280;59862;47.732;7.346;2023-03-22T08:33:57;97866.59;;;14.78;53.91
71996;BME280;59862;47.732;7.346;2023-03-22T08:36:24;97874.44;;;15.37;52.09
71996;BME280;59862;47.732;7.346;2023-03-22T08:38:52;97870.23;;;15.26;52.18
71996;BME280;59862;47.732;7.346;2023-03-22T08:41:20;97875.93;;;16.11;50.15
71996;BME280;59862;47.732;7.346;2023-03-22T08:43:49;97875.03;;;15.77;50.70
71996;BME280;59862;47.732;7.346;2023-03-22T08:46:16;97871.75;;;16.00;49.76
71996;BME280;59862;47.732;7.346;2023-03-22T08:48:43;97872.73;;;16.54;49.52
71996;BME280;59862;47.732;7.346;2023-03-22T08:51:13;97869.81;;;16.40;48.62
71996;BME280;59862;47.732;7.346;2023-03-22T08:53:40;97872.95;;;15.48;51.04
71996;BME280;59862;47.732;7.346;2023-03-22T08:56:08;97876.89;;;15.92;50.72
71996;BME280;59862;47.732;7.346;2023-03-22T08:58:35;97871.39;;;15.20;52.14
71996;BME280;59862;47.732;7.346;2023-03-22T09:01:03;97873.80;;;15.42;51.19
71996;BME280;59862;47.732;7.346;2023-03-22T09:03:31;97878.19;;;15.89;50.85
71996;BME280;59862;47.732;7.346;2023-03-22T09:05:58;97876.58;;;16.40;49.61
71996;BME280;59862;47.732;7.346;2023-03-22T09:08:26;97871.03;;;16.11;50.26
71996;BME280;59862;47.732;7.346;2023-03-22T09:10:54;97856.20;;;15.26;52.45
71996;BME280;59862;47.732;7.346;2023-03-22T09:13:21;97861.48;;;15.52;51.12
71996;BME280;59862;47.732;7.346;2023-03-22T09:15:50;97870.49;;;16.70;49.24
71996;BME280;59862;47.732;7.346;2023-03-22T09:18:18;97864.92;;;17.30;46.87
71996;BME280;59862;47.732;7.346;2023-03-22T09:20:46;97860.16;;;16.87;47.60
71996;BME280;59862;47.732;7.346;2023-03-22T09:23:13;97868.83;;;16.78;48.16
71996;BME280;59862;47.732;7.346;2023-03-22T09:25:45;97857.88;;;17.11;47.48
71996;BME280;59862;47.732;7.346;2023-03-22T09:28:14;97855.92;;;17.48;46.74
71996;BME280;59862;47.732;7.346;2023-03-22T09:30:42;97854.41;;;17.13;47.71
71996;BME280;59862;47.732;7.346;2023-03-22T09:33:10;97851.36;;;18.45;44.78
71996;BME280;59862;47.732;7.346;2023-03-22T09:35:42;97849.54;;;18.04;45.39
71996;BME280;59862;47.732;7.346;2023-03-22T09:38:09;97844.64;;;18.85;44.63
71996;BME280;59862;47.732;7.346;2023-03-22T09:40:42;97848.11;;;19.20;42.94
71996;BME280;59862;47.732;7.346;2023-03-22T09:43:10;97843.52;;;19.94;41.06
71996;BME280;59862;47.732;7.346;2023-03-22T09:45:41;97854.83;;;20.02;41.07
71996;BME280;59862;47.732;7.346;2023-03-22T09:48:16;97851.54;;;21.07;39.22
71996;BME280;59862;47.732;7.346;2023-03-22T09:50:51;97849.91;;;20.32;39.91
71996;BME280;59862;47.732;7.346;2023-03-22T09:53:20;97847.95;;;20.14;39.72
71996;BME280;59862;47.732;7.346;2023-03-22T09:56:09;97838.17;;;20.32;39.60
71996;BME280;59862;47.732;7.346;2023-03-22T09:59:18;97841.25;;;20.35;39.87
71996;BME280;59862;47.732;7.346;2023-03-22T10:01:54;97842.27;;;19.85;39.32
71996;BME280;59862;47.732;7.346;2023-03-22T10:04:44;97836.98;;;19.78;39.60
71996;BME280;59862;47.732;7.346;2023-03-22T10:10:06;97814.80;;;19.27;39.87
71996;BME280;59862;47.732;7.346;2023-03-22T10:15:13;97814.80;;;19.27;40.85
71996;BME280;59862;47.732;7.346;2023-03-22T10:17:43;97820.06;;;19.76;39.95
71996;BME280;59862;47.732;7.346;2023-03-22T10:22:43;97821.00;;;19.68;39.82
71996;BME280;59862;47.732;7.346;2023-03-22T10:25:15;97818.42;;;20.08;39.23
71996;BME280;59862;47.732;7.346;2023-03-22T10:27:43;97824.98;;;20.43;38.18
71996;BME280;59862;47.732;7.346;2023-03-22T10:30:26;97764.05;;;18.79;40.02
71996;BME280;59862;47.732;7.346;2023-03-22T10:33:03;97812.08;;;18.62;41.44
71996;BME280;59862;47.732;7.346;2023-03-22T10:35:31;97812.05;;;17.92;42.73
71996;BME280;59862;47.732;7.346;2023-03-22T10:38:01;97815.01;;;18.02;43.15
71996;BME280;59862;47.732;7.346;2023-03-22T10:40:31;97809.34;;;18.15;43.34
71996;BME280;59862;47.732;7.346;2023-03-22T10:43:03;97814.30;;;18.65;42.66
71996;BME280;59862;47.732;7.346;2023-03-22T10:45:32;97804.39;;;18.84;42.22
71996;BME280;59862;47.732;7.346;2023-03-22T10:48:22;97805.84;;;19.01;41.24
71996;BME280;59862;47.732;7.346;2023-03-22T10:50:44;97804.27;;;19.19;40.49
71996;BME280;59862;47.732;7.346;2023-03-22T10:53:43;97801.95;;;19.53;40.61
71996;BME280;59862;47.732;7.346;2023-03-22T10:56:18;97796.44;;;19.48;40.66
71996;BME280;59862;47.732;7.346;2023-03-22T10:58:50;97794.77;;;19.47;40.60
71996;BME280;59862;47.732;7.346;2023-03-22T11:01:30;97756.08;;;19.59;40.34
71996;BME280;59862;47.732;7.346;2023-03-22T11:04:06;97792.77;;;20.40;38.72
71996;BME280;59862;47.732;7.346;2023-03-22T11:06:39;97792.83;;;20.62;37.91
71996;BME280;59862;47.732;7.346;2023-03-22T11:09:14;97790.55;;;21.69;36.12
71996;BME280;59862;47.732;7.346;2023-03-22T11:11:57;97791.70;;;21.76;35.88
71996;BME280;59862;47.732;7.346;2023-03-22T11:14:40;97782.88;;;21.96;35.77
71996;BME280;59862;47.732;7.346;2023-03-22T11:17:22;97782.87;;;22.77;34.45
71996;BME280;59862;47.732;7.346;2023-03-22T11:22:39;97784.20;;;22.27;33.77
71996;BME280;59862;47.732;7.346;2023-03-22T11:25:22;97783.78;;;22.06;32.86
71996;BME280;59862;47.732;7.346;2023-03-22T11:27:52;97777.84;;;20.86;34.25
71996;BME280;59862;47.732;7.346;2023-03-22T11:30:26;97777.48;;;19.87;36.27
71996;BME280;59862;47.732;7.346;2023-03-22T11:33:16;97779.12;;;19.54;37.05
71996;BME280;59862;47.732;7.346;2023-03-22T11:35:46;97774.16;;;19.99;36.60
71996;BME280;59862;47.732;7.346;2023-03-22T11:38:34;97768.84;;;20.42;35.82
71996;BME280;59862;47.732;7.346;2023-03-22T11:41:06;97763.16;;;21.33;34.86
71996;BME280;59862;47.732;7.346;2023-03-22T11:43:41;97760.72;;;22.31;33.10
71996;BME280;59862;47.732;7.346;2023-03-22T11:46:10;97754.67;;;22.69;32.33
71996;BME280;59862;47.732;7.346;2023-03-22T11:48:40;97761.28;;;23.62;31.17
71996;BME280;59862;47.732;7.346;2023-03-22T11:51:11;97749.91;;;23.08;31.18
71996;BME280;59862;47.732;7.346;2023-03-22T11:53:44;97755.88;;;22.98;31.86
71996;BME280;59862;47.732;7.346;2023-03-22T11:56:16;97758.60;;;21.70;33.31
71996;BME280;59862;47.732;7.346;2023-03-22T11:58:52;97751.69;;;21.62;33.35
71996;BME280;59862;47.732;7.346;2023-03-22T12:01:33;97751.26;;;20.74;34.88
71996;BME280;59862;47.732;7.346;2023-03-22T12:03:50;97749.41;;;20.79;35.33
71996;BME280;59862;47.732;7.346;2023-03-22T12:06:31;97744.02;;;20.63;36.81
71996;BME280;59862;47.732;7.346;2023-03-22T12:09:04;97741.70;;;20.95;36.14
71996;BME280;59862;47.732;7.346;2023-03-22T12:11:36;97738.94;;;21.14;35.19
71996;BME280;59862;47.732;7.346;2023-03-22T12:14:15;97732.20;;;20.76;36.23
71996;BME280;59862;47.732;7.346;2023-03-22T12:19:35;97737.30;;;20.94;36.13
71996;BME280;59862;47.732;7.346;2023-03-22T12:21:58;97728.58;;;21.75;34.56
71996;BME280;59862;47.732;7.346;2023-03-22T12:24:29;97730.30;;;22.20;33.33
71996;BME280;59862;47.732;7.346;2023-03-22T12:27:18;97733.86;;;22.63;32.32
71996;BME280;59862;47.732;7.346;2023-03-22T12:29:58;97727.28;;;23.48;31.34
71996;BME280;59862;47.732;7.346;2023-03-22T12:32:44;97725.66;;;23.87;30.57
71996;BME280;59862;47.732;7.346;2023-03-22T12:34:51;97718.47;;;23.31;30.53
71996;BME280;59862;47.732;7.346;2023-03-22T12:37:25;97718.41;;;24.64;30.04
71996;BME280;59862;47.732;7.346;2023-03-22T12:40:07;97723.16;;;24.34;29.79
71996;BME280;59862;47.732;7.346;2023-03-22T12:43:26;97715.17;;;23.26;31.12
71996;BME280;59862;47.732;7.346;2023-03-22T12:45:22;97710.24;;;24.42;29.96
71996;BME280;59862;47.732;7.346;2023-03-22T12:47:56;97716.80;;;24.51;30.34
71996;BME280;59862;47.732;7.346;2023-03-22T12:50:35;97702.97;;;25.32;28.33
71996;BME280;59862;47.732;7.346;2023-03-22T12:52:54;97702.25;;;26.49;26.17
71996;BME280;59862;47.732;7.346;2023-03-22T12:55:33;97707.84;;;25.50;26.92
71996;BME280;59862;47.732;7.346;2023-03-22T12:57:56;97708.14;;;25.80;26.81
71996;BME280;59862;47.732;7.346;2023-03-22T13:00:32;97704.66;;;25.70;26.92
71996;BME280;59862;47.732;7.346;2023-03-22T13:03:17;97705.10;;;25.48;27.15
71996;BME280;59862;47.732;7.346;2023-03-22T13:05:35;97695.90;;;25.21;27.69
71996;BME280;59862;47.732;7.346;2023-03-22T13:08:02;97687.48;;;26.40;26.29
71996;BME280;59862;47.732;7.346;2023-03-22T13:21:14;97691.56;;;26.45;25.24
71996;BME280;59862;47.732;7.346;2023-03-22T13:26:47;97689.80;;;26.80;25.23
71996;BME280;59862;47.732;7.346;2023-03-22T13:29:20;97674.61;;;25.03;27.22
71996;BME280;59862;47.732;7.346;2023-03-22T13:31:59;97663.88;;;26.08;26.11
71996;BME280;59862;47.732;7.346;2023-03-22T13:35:17;97671.95;;;27.36;24.25
71996;BME280;59862;47.732;7.346;2023-03-22T13:37:09;97667.41;;;26.42;24.81
71996;BME280;59862;47.732;7.346;2023-03-22T13:39:38;97663.58;;;27.23;24.52
71996;BME280;59862;47.732;7.346;2023-03-22T13:42:15;97667.41;;;28.94;22.74
71996;BME280;59862;47.732;7.346;2023-03-22T13:44:39;97655.52;;;29.07;21.95
71996;BME280;59862;47.732;7.346;2023-03-22T13:50:08;97664.31;;;28.00;23.43
71996;BME280;59862;47.732;7.346;2023-03-22T13:52:37;97654.80;;;29.15;22.16
71996;BME280;59862;47.732;7.346;2023-03-22T13:55:34;97650.77;;;29.10;22.35
71996;BME280;59862;47.732;7.346;2023-03-22T13:57:55;97657.58;;;28.20;22.96
71996;BME280;59862;47.732;7.346;2023-03-22T14:00:41;97645.02;;;28.54;22.85
71996;BME280;59862;47.732;7.346;2023-03-22T14:02:49;97638.22;;;29.15;22.54
71996;BME280;59862;47.732;7.346;2023-03-22T14:05:19;97641.45;;;28.68;23.10
71996;BME280;59862;47.732;7.346;2023-03-22T14:07:58;97633.98;;;28.82;22.31
71996;BME280;59862;47.732;7.346;2023-03-22T14:10:43;97638.60;;;28.45;22.94
71996;BME280;59862;47.732;7.346;2023-03-22T14:13:33;97640.09;;;27.28;23.37
71996;BME280;59862;47.732;7.346;2023-03-22T14:16:20;97631.44;;;25.11;26.02
71996;BME280;59862;47.732;7.346;2023-03-22T14:18:49;97626.95;;;26.40;24.70
71996;BME280;59862;47.732;7.346;2023-03-22T14:21:20;97625.24;;;27.45;23.21
71996;BME280;59862;47.732;7.346;2023-03-22T14:23:55;97613.02;;;26.05;24.63
71996;BME280;59862;47.732;7.346;2023-03-22T14:26:39;97611.95;;;26.04;24.54